Terminal Aerodrome Forecast
Issued by NWS

Home | Current Version | Previous Version | Text Only | Print | Product List | Glossary On
Versions: 1 2 3 4 5 6 7 8 9 10 11 12
798
FTUS46 KLOX 060017 RRA
TAFSBA
TAF
KSBA 060017Z 0600/0624 11006KT P6SM SCT250
     FM060700 11003KT 1 1/2SM BR VCFG BKN003 BKN250
     FM061100 11003KT 5SM BR BKN007 BKN250
     FM061400 VRB03KT 6SM BR BKN012 BKN250=

USA.gov is the U.S. government's official web portal to all federal, state and local government web resources and services.